Accueil
METAR-TAF:

METAR-TAF

Aéroports :

Niederstetten, Allemagne

Base aérienne

latitude: 49-24N, longitude: 009-58E, altitude: 468 m

Observation

Le bulletin a été fait il y a 25 minutes, à 16:20 UTC
Vent 9 kt de ouest
Température 19°C
Humidité 46%
Pression 1020 hPa
Visibilité 10 km ou plus
Quelques nuages à une hauteur de 4500 ft

METAR: ETHN 191620Z 26009KT 9999 FEW045 19/07 Q1020 BLU+

Heure: 18:45 (16:45 UTC)

Prévision

Le bulletin a été fait il y a 30 heures et 37 minutes, à 10:08 UTC
Prévision valable du 18 à 08 UTC au 18 à 17 UTC
Vent 7 kt de sud
Visibilité: 1000 m
Nuages épars à une hauteur de 12000 ft
Nuages fragmentés à une hauteur de 18000 ft

TAF: ETHN 181008Z 1808/1817 19007KT 9999 NSW SCT120 BKN180 CANCEL 1000

Observations et prévisions météorologiques de plus de 4000 aéroports (messages METAR et TAF).

Les stations disponibles sont représentées par des disques jaunes et rouges sur la carte.

Passer la souris dessus pour voir le nom de la station.

Cliquer dessus pour voir les observations et prévisions météorologiques.

Pour changer de carte: cliquez sur les boutons verts avec une croix noire pour zoomer, sur le bouton vert avec un tiret pour effectuer un zoom arrière, ou sur les flèches vertes pour les cartes adjacentes.


METAR-TAF: